sensor_id;sensor_type;location;lat;lon;timestamp;P1;durP1;ratioP1;P2;durP2;ratioP2
3261;SDS011;1643;47.746;9.000;2023-11-19T00:02:13;2.50;;;2.30;;
3261;SDS011;1643;47.746;9.000;2023-11-19T00:04:38;3.40;;;1.77;;
3261;SDS011;1643;47.746;9.000;2023-11-19T00:07:04;5.73;;;2.07;;
3261;SDS011;1643;47.746;9.000;2023-11-19T00:09:32;3.07;;;2.23;;
3261;SDS011;1643;47.746;9.000;2023-11-19T00:11:58;1.50;;;1.40;;
3261;SDS011;1643;47.746;9.000;2023-11-19T00:14:25;2.67;;;2.47;;
3261;SDS011;1643;47.746;9.000;2023-11-19T00:16:51;2.33;;;2.13;;
3261;SDS011;1643;47.746;9.000;2023-11-19T00:19:18;2.27;;;2.07;;
3261;SDS011;1643;47.746;9.000;2023-11-19T00:21:44;2.30;;;2.10;;
3261;SDS011;1643;47.746;9.000;2023-11-19T00:24:10;2.03;;;1.93;;
3261;SDS011;1643;47.746;9.000;2023-11-19T00:26:37;2.00;;;1.83;;
3261;SDS011;1643;47.746;9.000;2023-11-19T00:29:03;2.27;;;1.83;;
3261;SDS011;1643;47.746;9.000;2023-11-19T00:31:29;2.37;;;2.17;;
3261;SDS011;1643;47.746;9.000;2023-11-19T00:33:55;1.67;;;1.57;;
3261;SDS011;1643;47.746;9.000;2023-11-19T00:36:20;2.10;;;1.90;;
3261;SDS011;1643;47.746;9.000;2023-11-19T00:38:49;2.57;;;1.40;;
3261;SDS011;1643;47.746;9.000;2023-11-19T00:41:15;2.60;;;1.90;;
3261;SDS011;1643;47.746;9.000;2023-11-19T00:43:41;2.60;;;2.40;;
3261;SDS011;1643;47.746;9.000;2023-11-19T00:46:07;1.90;;;1.80;;
3261;SDS011;1643;47.746;9.000;2023-11-19T00:48:35;3.13;;;2.10;;
3261;SDS011;1643;47.746;9.000;2023-11-19T00:51:01;2.57;;;2.10;;
3261;SDS011;1643;47.746;9.000;2023-11-19T00:53:27;2.10;;;1.90;;
3261;SDS011;1643;47.746;9.000;2023-11-19T00:55:53;2.30;;;2.10;;
3261;SDS011;1643;47.746;9.000;2023-11-19T00:58:18;2.00;;;1.70;;
3261;SDS011;1643;47.746;9.000;2023-11-19T01:00:44;2.03;;;1.60;;
3261;SDS011;1643;47.746;9.000;2023-11-19T01:03:10;2.23;;;1.90;;
3261;SDS011;1643;47.746;9.000;2023-11-19T01:05:36;2.83;;;1.80;;
3261;SDS011;1643;47.746;9.000;2023-11-19T01:08:02;2.10;;;2.00;;
3261;SDS011;1643;47.746;9.000;2023-11-19T01:10:29;3.33;;;2.10;;
3261;SDS011;1643;47.746;9.000;2023-11-19T01:12:55;2.20;;;2.00;;
3261;SDS011;1643;47.746;9.000;2023-11-19T01:15:21;2.30;;;2.10;;
3261;SDS011;1643;47.746;9.000;2023-11-19T01:17:47;1.97;;;1.83;;
3261;SDS011;1643;47.746;9.000;2023-11-19T01:20:13;3.17;;;2.63;;
3261;SDS011;1643;47.746;9.000;2023-11-19T01:22:39;2.20;;;2.00;;
3261;SDS011;1643;47.746;9.000;2023-11-19T01:25:05;2.07;;;1.90;;
3261;SDS011;1643;47.746;9.000;2023-11-19T01:27:32;1.50;;;1.40;;
3261;SDS011;1643;47.746;9.000;2023-11-19T01:29:59;2.10;;;2.00;;
3261;SDS011;1643;47.746;9.000;2023-11-19T01:32:28;2.13;;;2.03;;
3261;SDS011;1643;47.746;9.000;2023-11-19T01:34:53;2.10;;;2.00;;
3261;SDS011;1643;47.746;9.000;2023-11-19T01:37:19;2.90;;;2.33;;
3261;SDS011;1643;47.746;9.000;2023-11-19T01:39:45;2.43;;;2.23;;
3261;SDS011;1643;47.746;9.000;2023-11-19T01:42:10;1.87;;;1.73;;
3261;SDS011;1643;47.746;9.000;2023-11-19T01:44:39;2.30;;;2.10;;
3261;SDS011;1643;47.746;9.000;2023-11-19T01:47:04;2.20;;;2.00;;
3261;SDS011;1643;47.746;9.000;2023-11-19T01:49:31;2.40;;;2.20;;
3261;SDS011;1643;47.746;9.000;2023-11-19T01:51:58;5.47;;;2.70;;
3261;SDS011;1643;47.746;9.000;2023-11-19T01:54:24;3.43;;;2.30;;
3261;SDS011;1643;47.746;9.000;2023-11-19T01:56:50;2.63;;;2.40;;
3261;SDS011;1643;47.746;9.000;2023-11-19T01:59:18;2.00;;;1.90;;
3261;SDS011;1643;47.746;9.000;2023-11-19T02:01:51;3.33;;;1.90;;
3261;SDS011;1643;47.746;9.000;2023-11-19T02:04:17;2.90;;;2.17;;
3261;SDS011;1643;47.746;9.000;2023-11-19T02:06:43;1.90;;;1.80;;
3261;SDS011;1643;47.746;9.000;2023-11-19T02:09:10;3.67;;;2.90;;
3261;SDS011;1643;47.746;9.000;2023-11-19T02:11:35;5.60;;;3.50;;
3261;SDS011;1643;47.746;9.000;2023-11-19T02:14:01;3.70;;;2.67;;
3261;SDS011;1643;47.746;9.000;2023-11-19T02:16:29;2.57;;;2.37;;
3261;SDS011;1643;47.746;9.000;2023-11-19T02:18:54;3.70;;;3.10;;
3261;SDS011;1643;47.746;9.000;2023-11-19T02:21:20;3.23;;;2.30;;
3261;SDS011;1643;47.746;9.000;2023-11-19T02:23:46;2.73;;;2.40;;
3261;SDS011;1643;47.746;9.000;2023-11-19T02:29:03;2.40;;;2.20;;
3261;SDS011;1643;47.746;9.000;2023-11-19T02:31:29;2.43;;;2.23;;
3261;SDS011;1643;47.746;9.000;2023-11-19T02:33:55;2.67;;;2.47;;
3261;SDS011;1643;47.746;9.000;2023-11-19T02:36:20;1.97;;;1.87;;
3261;SDS011;1643;47.746;9.000;2023-11-19T02:38:46;2.60;;;2.10;;
3261;SDS011;1643;47.746;9.000;2023-11-19T02:41:13;2.30;;;2.10;;
3261;SDS011;1643;47.746;9.000;2023-11-19T02:43:39;2.40;;;2.20;;
3261;SDS011;1643;47.746;9.000;2023-11-19T02:46:05;2.30;;;1.90;;
3261;SDS011;1643;47.746;9.000;2023-11-19T02:48:37;2.20;;;2.00;;
3261;SDS011;1643;47.746;9.000;2023-11-19T02:51:02;2.00;;;1.90;;
3261;SDS011;1643;47.746;9.000;2023-11-19T02:53:29;2.50;;;2.20;;
3261;SDS011;1643;47.746;9.000;2023-11-19T02:55:55;3.27;;;2.63;;
3261;SDS011;1643;47.746;9.000;2023-11-19T02:58:27;5.83;;;2.50;;
3261;SDS011;1643;47.746;9.000;2023-11-19T03:00:54;2.60;;;2.00;;
3261;SDS011;1643;47.746;9.000;2023-11-19T03:03:24;2.73;;;1.83;;
3261;SDS011;1643;47.746;9.000;2023-11-19T03:05:54;2.30;;;2.10;;
3261;SDS011;1643;47.746;9.000;2023-11-19T03:08:20;2.10;;;1.90;;
3261;SDS011;1643;47.746;9.000;2023-11-19T03:10:47;2.27;;;2.07;;
3261;SDS011;1643;47.746;9.000;2023-11-19T03:13:13;2.60;;;2.30;;
3261;SDS011;1643;47.746;9.000;2023-11-19T03:15:39;2.73;;;2.30;;
3261;SDS011;1643;47.746;9.000;2023-11-19T03:18:05;2.57;;;2.17;;
3261;SDS011;1643;47.746;9.000;2023-11-19T03:20:31;2.70;;;2.50;;
3261;SDS011;1643;47.746;9.000;2023-11-19T03:22:57;2.53;;;2.00;;
3261;SDS011;1643;47.746;9.000;2023-11-19T03:25:25;2.83;;;2.20;;
3261;SDS011;1643;47.746;9.000;2023-11-19T03:28:01;2.57;;;2.30;;
3261;SDS011;1643;47.746;9.000;2023-11-19T03:30:28;2.27;;;2.07;;
3261;SDS011;1643;47.746;9.000;2023-11-19T03:32:55;1.97;;;1.80;;
3261;SDS011;1643;47.746;9.000;2023-11-19T03:35:21;1.90;;;1.80;;
3261;SDS011;1643;47.746;9.000;2023-11-19T03:37:48;2.90;;;1.90;;
3261;SDS011;1643;47.746;9.000;2023-11-19T03:40:14;1.90;;;1.67;;
3261;SDS011;1643;47.746;9.000;2023-11-19T03:42:39;2.07;;;1.70;;
3261;SDS011;1643;47.746;9.000;2023-11-19T03:45:06;1.70;;;1.60;;
3261;SDS011;1643;47.746;9.000;2023-11-19T03:47:33;2.30;;;2.10;;
3261;SDS011;1643;47.746;9.000;2023-11-19T03:50:00;1.73;;;1.63;;
3261;SDS011;1643;47.746;9.000;2023-11-19T03:52:26;3.33;;;1.77;;
3261;SDS011;1643;47.746;9.000;2023-11-19T03:54:55;2.67;;;2.23;;
3261;SDS011;1643;47.746;9.000;2023-11-19T03:57:22;3.60;;;2.40;;
3261;SDS011;1643;47.746;9.000;2023-11-19T03:59:48;1.70;;;1.60;;
3261;SDS011;1643;47.746;9.000;2023-11-19T04:02:14;2.93;;;2.13;;
3261;SDS011;1643;47.746;9.000;2023-11-19T04:04:40;3.73;;;2.40;;
3261;SDS011;1643;47.746;9.000;2023-11-19T04:07:06;2.60;;;2.40;;
3261;SDS011;1643;47.746;9.000;2023-11-19T04:09:31;3.67;;;2.70;;
3261;SDS011;1643;47.746;9.000;2023-11-19T04:12:02;2.30;;;2.10;;
3261;SDS011;1643;47.746;9.000;2023-11-19T04:14:28;3.33;;;2.20;;
3261;SDS011;1643;47.746;9.000;2023-11-19T04:16:54;2.43;;;2.23;;
3261;SDS011;1643;47.746;9.000;2023-11-19T04:19:19;2.37;;;2.17;;
3261;SDS011;1643;47.746;9.000;2023-11-19T04:21:45;2.33;;;2.13;;
3261;SDS011;1643;47.746;9.000;2023-11-19T04:24:11;2.73;;;2.50;;
3261;SDS011;1643;47.746;9.000;2023-11-19T04:26:40;3.40;;;2.40;;
3261;SDS011;1643;47.746;9.000;2023-11-19T04:29:17;2.47;;;2.27;;
3261;SDS011;1643;47.746;9.000;2023-11-19T04:31:43;2.27;;;2.07;;
3261;SDS011;1643;47.746;9.000;2023-11-19T04:34:12;2.97;;;2.37;;
3261;SDS011;1643;47.746;9.000;2023-11-19T04:36:38;2.50;;;2.20;;
3261;SDS011;1643;47.746;9.000;2023-11-19T04:39:04;2.43;;;2.23;;
3261;SDS011;1643;47.746;9.000;2023-11-19T04:41:34;2.47;;;2.27;;
3261;SDS011;1643;47.746;9.000;2023-11-19T04:44:00;3.10;;;2.83;;
3261;SDS011;1643;47.746;9.000;2023-11-19T04:46:26;4.50;;;4.10;;
3261;SDS011;1643;47.746;9.000;2023-11-19T04:48:52;4.60;;;4.20;;
3261;SDS011;1643;47.746;9.000;2023-11-19T04:51:17;4.97;;;3.90;;
3261;SDS011;1643;47.746;9.000;2023-11-19T04:53:43;5.07;;;4.20;;
3261;SDS011;1643;47.746;9.000;2023-11-19T04:56:09;3.70;;;3.40;;
3261;SDS011;1643;47.746;9.000;2023-11-19T04:58:36;4.77;;;4.13;;
3261;SDS011;1643;47.746;9.000;2023-11-19T05:01:03;5.33;;;4.77;;
3261;SDS011;1643;47.746;9.000;2023-11-19T05:03:29;4.83;;;4.23;;
3261;SDS011;1643;47.746;9.000;2023-11-19T05:05:58;5.50;;;4.10;;
3261;SDS011;1643;47.746;9.000;2023-11-19T05:08:24;3.90;;;3.30;;
3261;SDS011;1643;47.746;9.000;2023-11-19T05:10:50;2.97;;;2.77;;
3261;SDS011;1643;47.746;9.000;2023-11-19T05:13:15;3.27;;;2.97;;
3261;SDS011;1643;47.746;9.000;2023-11-19T05:15:42;2.97;;;2.77;;
3261;SDS011;1643;47.746;9.000;2023-11-19T05:18:07;6.47;;;2.87;;
3261;SDS011;1643;47.746;9.000;2023-11-19T05:20:33;3.47;;;2.87;;
3261;SDS011;1643;47.746;9.000;2023-11-19T05:22:59;3.40;;;2.90;;
3261;SDS011;1643;47.746;9.000;2023-11-19T05:25:28;3.10;;;2.50;;
3261;SDS011;1643;47.746;9.000;2023-11-19T05:27:53;2.70;;;2.50;;
3261;SDS011;1643;47.746;9.000;2023-11-19T05:30:19;4.20;;;2.90;;
3261;SDS011;1643;47.746;9.000;2023-11-19T05:32:44;3.30;;;2.60;;
3261;SDS011;1643;47.746;9.000;2023-11-19T05:35:11;3.03;;;2.63;;
3261;SDS011;1643;47.746;9.000;2023-11-19T05:37:37;2.57;;;2.37;;
3261;SDS011;1643;47.746;9.000;2023-11-19T05:40:03;3.10;;;2.80;;
3261;SDS011;1643;47.746;9.000;2023-11-19T05:42:31;4.70;;;2.63;;
3261;SDS011;1643;47.746;9.000;2023-11-19T05:44:57;3.50;;;2.80;;
3261;SDS011;1643;47.746;9.000;2023-11-19T05:47:23;3.10;;;2.87;;
3261;SDS011;1643;47.746;9.000;2023-11-19T05:49:48;3.83;;;3.53;;
3261;SDS011;1643;47.746;9.000;2023-11-19T05:52:14;4.60;;;2.63;;
3261;SDS011;1643;47.746;9.000;2023-11-19T05:54:40;3.33;;;2.90;;
3261;SDS011;1643;47.746;9.000;2023-11-19T05:57:07;2.63;;;2.43;;
3261;SDS011;1643;47.746;9.000;2023-11-19T05:59:35;2.97;;;2.73;;
3261;SDS011;1643;47.746;9.000;2023-11-19T06:02:01;3.23;;;2.57;;
3261;SDS011;1643;47.746;9.000;2023-11-19T06:04:28;3.00;;;2.80;;
3261;SDS011;1643;47.746;9.000;2023-11-19T06:06:53;2.70;;;2.50;;
3261;SDS011;1643;47.746;9.000;2023-11-19T06:09:20;3.00;;;2.70;;
3261;SDS011;1643;47.746;9.000;2023-11-19T06:11:48;2.73;;;2.53;;
3261;SDS011;1643;47.746;9.000;2023-11-19T06:14:14;2.80;;;2.37;;
3261;SDS011;1643;47.746;9.000;2023-11-19T06:16:40;3.30;;;3.00;;
3261;SDS011;1643;47.746;9.000;2023-11-19T06:19:06;3.30;;;3.00;;
3261;SDS011;1643;47.746;9.000;2023-11-19T06:21:31;3.20;;;2.90;;
3261;SDS011;1643;47.746;9.000;2023-11-19T06:23:57;3.33;;;3.03;;
3261;SDS011;1643;47.746;9.000;2023-11-19T06:26:24;2.77;;;2.53;;
3261;SDS011;1643;47.746;9.000;2023-11-19T06:28:49;2.87;;;2.63;;
3261;SDS011;1643;47.746;9.000;2023-11-19T06:31:15;2.97;;;2.70;;
3261;SDS011;1643;47.746;9.000;2023-11-19T06:33:41;3.40;;;3.10;;
3261;SDS011;1643;47.746;9.000;2023-11-19T06:36:07;3.10;;;2.80;;
3261;SDS011;1643;47.746;9.000;2023-11-19T06:38:34;3.47;;;3.10;;
3261;SDS011;1643;47.746;9.000;2023-11-19T06:40:59;3.40;;;2.93;;
3261;SDS011;1643;47.746;9.000;2023-11-19T06:43:26;3.37;;;3.07;;
3261;SDS011;1643;47.746;9.000;2023-11-19T06:45:53;4.53;;;3.10;;
3261;SDS011;1643;47.746;9.000;2023-11-19T06:48:19;3.07;;;2.70;;
3261;SDS011;1643;47.746;9.000;2023-11-19T06:50:45;3.27;;;2.97;;
3261;SDS011;1643;47.746;9.000;2023-11-19T06:53:10;2.20;;;2.00;;
3261;SDS011;1643;47.746;9.000;2023-11-19T06:55:36;3.30;;;3.00;;
3261;SDS011;1643;47.746;9.000;2023-11-19T06:58:02;3.40;;;2.80;;
3261;SDS011;1643;47.746;9.000;2023-11-19T07:00:28;3.10;;;2.50;;
3261;SDS011;1643;47.746;9.000;2023-11-19T07:02:54;2.50;;;2.30;;
3261;SDS011;1643;47.746;9.000;2023-11-19T07:05:20;3.47;;;3.17;;
3261;SDS011;1643;47.746;9.000;2023-11-19T07:07:46;3.03;;;2.60;;
3261;SDS011;1643;47.746;9.000;2023-11-19T07:10:12;3.10;;;2.90;;
3261;SDS011;1643;47.746;9.000;2023-11-19T07:12:37;3.93;;;3.63;;
3261;SDS011;1643;47.746;9.000;2023-11-19T07:15:03;3.80;;;3.27;;
3261;SDS011;1643;47.746;9.000;2023-11-19T07:17:30;2.70;;;2.50;;
3261;SDS011;1643;47.746;9.000;2023-11-19T07:19:56;2.87;;;2.63;;
3261;SDS011;1643;47.746;9.000;2023-11-19T07:22:24;2.67;;;2.37;;
3261;SDS011;1643;47.746;9.000;2023-11-19T07:24:50;1.73;;;1.63;;
3261;SDS011;1643;47.746;9.000;2023-11-19T07:27:16;2.70;;;2.07;;
3261;SDS011;1643;47.746;9.000;2023-11-19T07:29:43;2.00;;;1.80;;
3261;SDS011;1643;47.746;9.000;2023-11-19T07:32:09;2.10;;;1.83;;
3261;SDS011;1643;47.746;9.000;2023-11-19T07:34:35;2.83;;;2.63;;
3261;SDS011;1643;47.746;9.000;2023-11-19T07:37:01;2.33;;;2.23;;
3261;SDS011;1643;47.746;9.000;2023-11-19T07:39:28;3.10;;;2.80;;
3261;SDS011;1643;47.746;9.000;2023-11-19T07:41:54;2.80;;;2.60;;
3261;SDS011;1643;47.746;9.000;2023-11-19T07:44:20;3.73;;;3.43;;
3261;SDS011;1643;47.746;9.000;2023-11-19T07:46:46;3.47;;;3.17;;
3261;SDS011;1643;47.746;9.000;2023-11-19T07:49:13;4.70;;;3.17;;
3261;SDS011;1643;47.746;9.000;2023-11-19T07:51:39;2.13;;;1.80;;
3261;SDS011;1643;47.746;9.000;2023-11-19T07:54:05;1.87;;;1.77;;
3261;SDS011;1643;47.746;9.000;2023-11-19T07:56:33;1.77;;;1.60;;
3261;SDS011;1643;47.746;9.000;2023-11-19T07:59:00;1.40;;;1.30;;
3261;SDS011;1643;47.746;9.000;2023-11-19T08:01:26;1.40;;;1.30;;
3261;SDS011;1643;47.746;9.000;2023-11-19T08:03:52;1.70;;;1.60;;
3261;SDS011;1643;47.746;9.000;2023-11-19T08:06:17;1.70;;;1.53;;
3261;SDS011;1643;47.746;9.000;2023-11-19T08:08:43;1.67;;;1.57;;
3261;SDS011;1643;47.746;9.000;2023-11-19T08:11:10;2.00;;;1.90;;
3261;SDS011;1643;47.746;9.000;2023-11-19T08:13:35;1.80;;;1.70;;
3261;SDS011;1643;47.746;9.000;2023-11-19T08:16:01;1.73;;;1.63;;
3261;SDS011;1643;47.746;9.000;2023-11-19T08:18:27;1.50;;;1.40;;
3261;SDS011;1643;47.746;9.000;2023-11-19T08:20:52;1.93;;;1.50;;
3261;SDS011;1643;47.746;9.000;2023-11-19T08:23:23;1.40;;;1.30;;
3261;SDS011;1643;47.746;9.000;2023-11-19T08:25:50;2.97;;;1.70;;
3261;SDS011;1643;47.746;9.000;2023-11-19T08:28:16;1.60;;;1.50;;
3261;SDS011;1643;47.746;9.000;2023-11-19T08:30:42;1.60;;;1.50;;
3261;SDS011;1643;47.746;9.000;2023-11-19T08:33:09;1.60;;;1.50;;
3261;SDS011;1643;47.746;9.000;2023-11-19T08:35:34;2.60;;;1.80;;
3261;SDS011;1643;47.746;9.000;2023-11-19T08:38:00;2.03;;;1.50;;
3261;SDS011;1643;47.746;9.000;2023-11-19T08:40:26;1.93;;;1.53;;
3261;SDS011;1643;47.746;9.000;2023-11-19T08:42:52;1.43;;;1.30;;
3261;SDS011;1643;47.746;9.000;2023-11-19T08:45:18;0.93;;;0.93;;
3261;SDS011;1643;47.746;9.000;2023-11-19T08:47:44;1.40;;;1.30;;
3261;SDS011;1643;47.746;9.000;2023-11-19T08:50:10;2.30;;;1.17;;
3261;SDS011;1643;47.746;9.000;2023-11-19T08:52:39;1.07;;;1.00;;
3261;SDS011;1643;47.746;9.000;2023-11-19T08:55:05;1.10;;;1.00;;
3261;SDS011;1643;47.746;9.000;2023-11-19T08:57:31;2.00;;;1.10;;
3261;SDS011;1643;47.746;9.000;2023-11-19T08:59:57;1.10;;;1.00;;
3261;SDS011;1643;47.746;9.000;2023-11-19T09:02:23;1.50;;;1.30;;
3261;SDS011;1643;47.746;9.000;2023-11-19T09:04:49;1.20;;;1.10;;
3261;SDS011;1643;47.746;9.000;2023-11-19T09:07:15;1.30;;;1.20;;
3261;SDS011;1643;47.746;9.000;2023-11-19T09:09:41;1.60;;;1.50;;
3261;SDS011;1643;47.746;9.000;2023-11-19T09:12:07;1.87;;;1.40;;
3261;SDS011;1643;47.746;9.000;2023-11-19T09:14:32;1.20;;;1.10;;
3261;SDS011;1643;47.746;9.000;2023-11-19T09:16:58;1.10;;;1.00;;
3261;SDS011;1643;47.746;9.000;2023-11-19T09:19:24;1.13;;;1.03;;
3261;SDS011;1643;47.746;9.000;2023-11-19T09:21:51;1.47;;;1.20;;
3261;SDS011;1643;47.746;9.000;2023-11-19T09:24:18;0.87;;;0.87;;
3261;SDS011;1643;47.746;9.000;2023-11-19T09:26:43;0.80;;;0.80;;
3261;SDS011;1643;47.746;9.000;2023-11-19T09:29:09;0.70;;;0.70;;
3261;SDS011;1643;47.746;9.000;2023-11-19T09:31:35;1.40;;;1.00;;
3261;SDS011;1643;47.746;9.000;2023-11-19T09:34:03;0.83;;;0.73;;
3261;SDS011;1643;47.746;9.000;2023-11-19T09:36:28;0.73;;;0.73;;
3261;SDS011;1643;47.746;9.000;2023-11-19T09:38:54;0.70;;;0.70;;
3261;SDS011;1643;47.746;9.000;2023-11-19T09:41:20;0.90;;;0.80;;
3261;SDS011;1643;47.746;9.000;2023-11-19T09:43:45;1.10;;;0.70;;
3261;SDS011;1643;47.746;9.000;2023-11-19T09:46:14;1.00;;;0.80;;
3261;SDS011;1643;47.746;9.000;2023-11-19T09:48:41;0.80;;;0.80;;
3261;SDS011;1643;47.746;9.000;2023-11-19T09:51:11;0.80;;;0.80;;
3261;SDS011;1643;47.746;9.000;2023-11-19T09:53:37;0.87;;;0.80;;
3261;SDS011;1643;47.746;9.000;2023-11-19T09:56:03;0.97;;;0.87;;
3261;SDS011;1643;47.746;9.000;2023-11-19T09:58:31;1.20;;;1.10;;
3261;SDS011;1643;47.746;9.000;2023-11-19T10:00:59;1.23;;;1.13;;
3261;SDS011;1643;47.746;9.000;2023-11-19T10:03:27;1.13;;;0.90;;
3261;SDS011;1643;47.746;9.000;2023-11-19T10:05:57;1.10;;;0.80;;
3261;SDS011;1643;47.746;9.000;2023-11-19T10:08:24;0.70;;;0.70;;
3261;SDS011;1643;47.746;9.000;2023-11-19T10:10:50;1.30;;;0.90;;
3261;SDS011;1643;47.746;9.000;2023-11-19T10:13:16;0.97;;;0.90;;
3261;SDS011;1643;47.746;9.000;2023-11-19T10:15:43;0.90;;;0.70;;
3261;SDS011;1643;47.746;9.000;2023-11-19T10:18:09;0.80;;;0.80;;
3261;SDS011;1643;47.746;9.000;2023-11-19T10:20:35;1.10;;;0.90;;
3261;SDS011;1643;47.746;9.000;2023-11-19T10:23:06;1.73;;;0.90;;
3261;SDS011;1643;47.746;9.000;2023-11-19T10:25:32;0.83;;;0.80;;
3261;SDS011;1643;47.746;9.000;2023-11-19T10:27:59;1.97;;;1.73;;
3261;SDS011;1643;47.746;9.000;2023-11-19T10:30:28;1.63;;;1.53;;
3261;SDS011;1643;47.746;9.000;2023-11-19T10:35:34;0.70;;;0.70;;
3261;SDS011;1643;47.746;9.000;2023-11-19T10:38:01;0.70;;;0.70;;
3261;SDS011;1643;47.746;9.000;2023-11-19T10:40:47;0.70;;;0.70;;
3261;SDS011;1643;47.746;9.000;2023-11-19T10:43:13;0.93;;;0.77;;
3261;SDS011;1643;47.746;9.000;2023-11-19T10:45:39;0.70;;;0.70;;
3261;SDS011;1643;47.746;9.000;2023-11-19T10:48:05;1.00;;;0.70;;
3261;SDS011;1643;47.746;9.000;2023-11-19T10:50:35;0.90;;;0.90;;
3261;SDS011;1643;47.746;9.000;2023-11-19T10:53:02;0.80;;;0.80;;
3261;SDS011;1643;47.746;9.000;2023-11-19T10:55:30;2.20;;;1.23;;
3261;SDS011;1643;47.746;9.000;2023-11-19T10:57:58;1.10;;;1.00;;
3261;SDS011;1643;47.746;9.000;2023-11-19T11:00:25;1.03;;;0.93;;
3261;SDS011;1643;47.746;9.000;2023-11-19T11:02:55;1.43;;;1.20;;
3261;SDS011;1643;47.746;9.000;2023-11-19T11:05:25;1.20;;;1.10;;
3261;SDS011;1643;47.746;9.000;2023-11-19T11:07:52;1.00;;;1.00;;
3261;SDS011;1643;47.746;9.000;2023-11-19T11:10:20;1.30;;;1.20;;
3261;SDS011;1643;47.746;9.000;2023-11-19T11:12:51;1.40;;;1.30;;
3261;SDS011;1643;47.746;9.000;2023-11-19T11:15:24;1.30;;;1.20;;
3261;SDS011;1643;47.746;9.000;2023-11-19T11:17:57;2.60;;;1.20;;
3261;SDS011;1643;47.746;9.000;2023-11-19T11:20:28;1.30;;;1.00;;
3261;SDS011;1643;47.746;9.000;2023-11-19T11:28:16;1.90;;;1.80;;
3261;SDS011;1643;47.746;9.000;2023-11-19T11:33:28;1.43;;;1.33;;
3261;SDS011;1643;47.746;9.000;2023-11-19T11:36:20;2.53;;;2.33;;
3261;SDS011;1643;47.746;9.000;2023-11-19T11:38:48;1.97;;;1.80;;
3261;SDS011;1643;47.746;9.000;2023-11-19T11:41:15;1.50;;;1.40;;
3261;SDS011;1643;47.746;9.000;2023-11-19T11:43:44;1.63;;;1.53;;
3261;SDS011;1643;47.746;9.000;2023-11-19T11:46:56;0.70;;;0.70;;
3261;SDS011;1643;47.746;9.000;2023-11-19T11:49:00;1.47;;;0.80;;
3261;SDS011;1643;47.746;9.000;2023-11-19T11:54:11;1.93;;;0.77;;
3261;SDS011;1643;47.746;9.000;2023-11-19T12:02:07;2.37;;;0.90;;
3261;SDS011;1643;47.746;9.000;2023-11-19T12:04:34;0.77;;;0.77;;
3261;SDS011;1643;47.746;9.000;2023-11-19T12:07:17;1.63;;;1.07;;
3261;SDS011;1643;47.746;9.000;2023-11-19T12:09:46;0.90;;;0.80;;
3261;SDS011;1643;47.746;9.000;2023-11-19T12:20:05;0.80;;;0.80;;
3261;SDS011;1643;47.746;9.000;2023-11-19T12:22:34;1.00;;;0.90;;
3261;SDS011;1643;47.746;9.000;2023-11-19T12:25:02;0.73;;;0.73;;
3261;SDS011;1643;47.746;9.000;2023-11-19T12:27:29;1.20;;;1.10;;
3261;SDS011;1643;47.746;9.000;2023-11-19T12:29:55;0.90;;;0.90;;
3261;SDS011;1643;47.746;9.000;2023-11-19T12:32:22;1.10;;;0.90;;
3261;SDS011;1643;47.746;9.000;2023-11-19T12:34:47;1.37;;;0.90;;
3261;SDS011;1643;47.746;9.000;2023-11-19T12:37:13;0.93;;;0.93;;
3261;SDS011;1643;47.746;9.000;2023-11-19T12:39:39;0.77;;;0.77;;
3261;SDS011;1643;47.746;9.000;2023-11-19T12:42:05;0.90;;;0.90;;
3261;SDS011;1643;47.746;9.000;2023-11-19T12:44:30;0.80;;;0.80;;
3261;SDS011;1643;47.746;9.000;2023-11-19T12:49:32;1.00;;;0.90;;
3261;SDS011;1643;47.746;9.000;2023-11-19T12:51:59;1.30;;;1.13;;
3261;SDS011;1643;47.746;9.000;2023-11-19T12:54:34;0.97;;;0.97;;
3261;SDS011;1643;47.746;9.000;2023-11-19T12:57:01;1.10;;;1.00;;
3261;SDS011;1643;47.746;9.000;2023-11-19T12:59:27;1.77;;;1.00;;
3261;SDS011;1643;47.746;9.000;2023-11-19T13:01:54;0.93;;;0.80;;
3261;SDS011;1643;47.746;9.000;2023-11-19T13:04:23;1.60;;;1.20;;
3261;SDS011;1643;47.746;9.000;2023-11-19T13:06:52;1.30;;;1.10;;
3261;SDS011;1643;47.746;9.000;2023-11-19T13:09:25;0.83;;;0.83;;
3261;SDS011;1643;47.746;9.000;2023-11-19T13:11:54;1.00;;;0.90;;
3261;SDS011;1643;47.746;9.000;2023-11-19T13:14:35;1.53;;;1.00;;
3261;SDS011;1643;47.746;9.000;2023-11-19T13:17:02;2.60;;;1.00;;
3261;SDS011;1643;47.746;9.000;2023-11-19T13:19:28;1.30;;;1.10;;
3261;SDS011;1643;47.746;9.000;2023-11-19T13:21:54;1.20;;;0.90;;
3261;SDS011;1643;47.746;9.000;2023-11-19T13:24:19;2.00;;;1.00;;
3261;SDS011;1643;47.746;9.000;2023-11-19T13:26:45;0.93;;;0.93;;
3261;SDS011;1643;47.746;9.000;2023-11-19T13:29:11;1.20;;;1.00;;
3261;SDS011;1643;47.746;9.000;2023-11-19T13:31:37;1.43;;;1.10;;
3261;SDS011;1643;47.746;9.000;2023-11-19T13:34:03;1.17;;;1.00;;
3261;SDS011;1643;47.746;9.000;2023-11-19T13:36:29;2.40;;;0.87;;
3261;SDS011;1643;47.746;9.000;2023-11-19T13:38:54;1.00;;;0.90;;
3261;SDS011;1643;47.746;9.000;2023-11-19T13:41:24;1.37;;;0.90;;
3261;SDS011;1643;47.746;9.000;2023-11-19T13:43:50;1.10;;;0.90;;
3261;SDS011;1643;47.746;9.000;2023-11-19T13:46:16;1.43;;;1.07;;
3261;SDS011;1643;47.746;9.000;2023-11-19T13:48:42;1.80;;;0.87;;
3261;SDS011;1643;47.746;9.000;2023-11-19T13:51:07;0.97;;;0.90;;
3261;SDS011;1643;47.746;9.000;2023-11-19T13:53:35;1.10;;;1.00;;
3261;SDS011;1643;47.746;9.000;2023-11-19T13:56:00;1.20;;;1.10;;
3261;SDS011;1643;47.746;9.000;2023-11-19T13:58:26;1.10;;;0.90;;
3261;SDS011;1643;47.746;9.000;2023-11-19T14:00:52;1.10;;;0.90;;
3261;SDS011;1643;47.746;9.000;2023-11-19T14:03:18;0.80;;;0.80;;
3261;SDS011;1643;47.746;9.000;2023-11-19T14:05:44;1.00;;;1.00;;
3261;SDS011;1643;47.746;9.000;2023-11-19T14:08:10;1.20;;;1.10;;
3261;SDS011;1643;47.746;9.000;2023-11-19T14:10:37;1.87;;;1.10;;
3261;SDS011;1643;47.746;9.000;2023-11-19T14:13:05;1.33;;;1.00;;
3261;SDS011;1643;47.746;9.000;2023-11-19T14:15:34;0.90;;;0.90;;
3261;SDS011;1643;47.746;9.000;2023-11-19T14:18:00;1.40;;;1.10;;
3261;SDS011;1643;47.746;9.000;2023-11-19T14:20:26;2.87;;;1.07;;
3261;SDS011;1643;47.746;9.000;2023-11-19T14:22:51;2.07;;;1.10;;
3261;SDS011;1643;47.746;9.000;2023-11-19T14:25:17;2.20;;;1.23;;
3261;SDS011;1643;47.746;9.000;2023-11-19T14:27:44;0.90;;;0.90;;
3261;SDS011;1643;47.746;9.000;2023-11-19T14:30:12;1.10;;;1.00;;
3261;SDS011;1643;47.746;9.000;2023-11-19T14:32:39;1.47;;;1.00;;
3261;SDS011;1643;47.746;9.000;2023-11-19T14:35:06;1.10;;;1.00;;
3261;SDS011;1643;47.746;9.000;2023-11-19T14:37:32;1.20;;;1.10;;
3261;SDS011;1643;47.746;9.000;2023-11-19T14:39:58;1.30;;;1.20;;
3261;SDS011;1643;47.746;9.000;2023-11-19T14:42:24;2.30;;;1.07;;
3261;SDS011;1643;47.746;9.000;2023-11-19T14:44:53;1.70;;;1.00;;
3261;SDS011;1643;47.746;9.000;2023-11-19T14:47:20;1.37;;;0.90;;
3261;SDS011;1643;47.746;9.000;2023-11-19T14:49:46;9.50;;;1.20;;
3261;SDS011;1643;47.746;9.000;2023-11-19T14:52:12;1.73;;;1.00;;
3261;SDS011;1643;47.746;9.000;2023-11-19T14:54:39;2.03;;;0.80;;
3261;SDS011;1643;47.746;9.000;2023-11-19T14:57:05;1.07;;;0.93;;
3261;SDS011;1643;47.746;9.000;2023-11-19T14:59:33;1.30;;;0.90;;
3261;SDS011;1643;47.746;9.000;2023-11-19T15:01:59;1.40;;;1.00;;
3261;SDS011;1643;47.746;9.000;2023-11-19T15:04:26;3.57;;;1.10;;
3261;SDS011;1643;47.746;9.000;2023-11-19T15:06:52;1.13;;;1.00;;
3261;SDS011;1643;47.746;9.000;2023-11-19T15:09:18;1.10;;;0.90;;
3261;SDS011;1643;47.746;9.000;2023-11-19T15:11:46;2.00;;;1.00;;
3261;SDS011;1643;47.746;9.000;2023-11-19T15:14:15;1.10;;;1.00;;
3261;SDS011;1643;47.746;9.000;2023-11-19T15:16:43;2.00;;;0.90;;
3261;SDS011;1643;47.746;9.000;2023-11-19T15:19:09;4.93;;;1.00;;
3261;SDS011;1643;47.746;9.000;2023-11-19T15:21:35;1.00;;;1.00;;
3261;SDS011;1643;47.746;9.000;2023-11-19T15:24:01;0.97;;;0.93;;
3261;SDS011;1643;47.746;9.000;2023-11-19T15:26:29;1.43;;;1.07;;
3261;SDS011;1643;47.746;9.000;2023-11-19T15:28:55;1.63;;;1.10;;
3261;SDS011;1643;47.746;9.000;2023-11-19T15:31:22;2.73;;;1.00;;
3261;SDS011;1643;47.746;9.000;2023-11-19T15:33:48;1.10;;;1.00;;
3261;SDS011;1643;47.746;9.000;2023-11-19T15:36:15;1.20;;;1.10;;
3261;SDS011;1643;47.746;9.000;2023-11-19T15:38:42;1.10;;;1.00;;
3261;SDS011;1643;47.746;9.000;2023-11-19T15:41:08;1.80;;;1.27;;
3261;SDS011;1643;47.746;9.000;2023-11-19T15:43:34;3.77;;;2.80;;
3261;SDS011;1643;47.746;9.000;2023-11-19T15:45:59;2.20;;;1.30;;